createdAt,value
2023-04-30T00:00:22.875Z,13.90
2023-04-30T00:02:50.892Z,13.94
2023-04-30T00:05:19.121Z,14.05
2023-04-30T00:07:47.101Z,14.30
2023-04-30T00:10:15.217Z,14.32
2023-04-30T00:12:44.559Z,14.11
2023-04-30T00:15:14.697Z,13.90
2023-04-30T00:17:42.747Z,13.82
2023-04-30T00:20:11.696Z,13.66
2023-04-30T00:22:39.960Z,13.55
2023-04-30T00:25:08.593Z,13.25
2023-04-30T00:27:37.882Z,13.23
2023-04-30T00:30:09.712Z,13.00
2023-04-30T00:32:38.508Z,13.16
2023-04-30T00:35:07.323Z,12.91
2023-04-30T00:37:35.339Z,13.02
2023-04-30T00:40:03.435Z,13.32
2023-04-30T00:42:31.363Z,13.10
2023-04-30T00:45:01.545Z,12.99
2023-04-30T00:47:32.254Z,12.88
2023-04-30T00:50:00.565Z,13.05
2023-04-30T00:52:28.845Z,13.09
2023-04-30T00:54:57.174Z,13.02
2023-04-30T00:57:27.810Z,13.06
2023-04-30T00:59:56.789Z,13.07
2023-04-30T01:02:28.475Z,13.05
2023-04-30T01:05:00.377Z,12.90
2023-04-30T01:07:28.758Z,12.96
2023-04-30T01:09:57.035Z,13.15
2023-04-30T01:12:34.442Z,13.05
2023-04-30T01:15:07.915Z,13.06
2023-04-30T01:17:39.888Z,13.24
2023-04-30T01:20:11.684Z,13.13
2023-04-30T01:22:48.216Z,13.41
2023-04-30T01:25:33.218Z,13.32
2023-04-30T01:28:09.343Z,13.35
2023-04-30T01:30:40.724Z,13.03
2023-04-30T01:33:09.310Z,12.89
2023-04-30T01:35:50.292Z,12.80
2023-04-30T01:38:29.531Z,12.92
2023-04-30T01:41:08.561Z,12.76
2023-04-30T01:43:46.609Z,12.70
2023-04-30T01:46:22.973Z,12.77
2023-04-30T01:49:01.069Z,12.63
2023-04-30T01:51:38.405Z,12.36
2023-04-30T01:54:17.108Z,12.47
2023-04-30T01:56:51.050Z,12.67
2023-04-30T01:59:20.853Z,12.64
2023-04-30T02:01:49.453Z,12.59
2023-04-30T02:04:17.439Z,12.63
2023-04-30T02:06:47.821Z,12.47
2023-04-30T02:09:15.657Z,12.77
2023-04-30T02:11:44.232Z,12.62
2023-04-30T02:14:12.234Z,12.25
2023-04-30T02:16:42.123Z,12.16
2023-04-30T02:19:11.216Z,12.33
2023-04-30T02:21:39.285Z,12.19
2023-04-30T02:24:07.968Z,12.30
2023-04-30T02:26:35.942Z,12.27
2023-04-30T02:29:03.926Z,12.03
2023-04-30T02:31:32.677Z,12.18
2023-04-30T02:34:01.988Z,12.20
2023-04-30T02:36:29.965Z,12.18
2023-04-30T02:38:57.917Z,12.01
2023-04-30T02:41:26.702Z,12.00
2023-04-30T02:43:54.680Z,11.97
2023-04-30T02:46:22.844Z,11.92
2023-04-30T02:48:51.004Z,12.04
2023-04-30T02:51:20.369Z,11.96
2023-04-30T02:53:48.568Z,11.91
2023-04-30T02:56:16.613Z,11.98
2023-04-30T02:58:44.472Z,11.80
2023-04-30T03:01:12.726Z,12.24
2023-04-30T03:03:41.256Z,12.13
2023-04-30T03:06:09.335Z,12.03
2023-04-30T03:08:38.705Z,12.20
2023-04-30T03:11:06.851Z,12.15
2023-04-30T03:13:37.122Z,12.30
2023-04-30T03:16:06.195Z,12.46
2023-04-30T03:18:34.782Z,12.41
2023-04-30T03:21:02.887Z,12.63
2023-04-30T03:23:33.399Z,12.85
2023-04-30T03:26:03.037Z,12.66
2023-04-30T03:28:31.055Z,12.77
2023-04-30T03:30:59.531Z,12.73
2023-04-30T03:33:27.823Z,12.68
2023-04-30T03:35:56.003Z,12.62
2023-04-30T03:38:24.336Z,12.79
2023-04-30T03:40:52.535Z,12.93
2023-04-30T03:43:22.636Z,13.13
2023-04-30T03:45:51.133Z,13.05
2023-04-30T03:48:19.317Z,12.35
2023-04-30T03:50:47.502Z,12.46
2023-04-30T03:53:15.420Z,12.18
2023-04-30T03:55:46.581Z,12.18
2023-04-30T03:58:14.594Z,12.48
2023-04-30T04:00:47.610Z,12.54
2023-04-30T04:03:16.854Z,12.73
2023-04-30T04:05:45.082Z,12.63
2023-04-30T04:08:13.612Z,12.26
2023-04-30T04:10:41.915Z,12.39
2023-04-30T04:13:11.416Z,12.20
2023-04-30T04:15:39.511Z,12.17
2023-04-30T04:18:09.054Z,12.18
2023-04-30T04:20:37.230Z,12.53
2023-04-30T04:23:05.354Z,12.90
2023-04-30T04:25:34.204Z,12.74
2023-04-30T04:28:02.582Z,12.89
2023-04-30T04:30:30.846Z,12.39
2023-04-30T04:33:01.008Z,12.59
2023-04-30T04:35:31.859Z,12.33
2023-04-30T04:38:00.277Z,12.67
2023-04-30T04:40:29.897Z,12.94
2023-04-30T04:42:59.833Z,13.01
2023-04-30T04:45:28.323Z,12.91
2023-04-30T04:47:57.090Z,13.08
2023-04-30T04:50:25.839Z,12.49
2023-04-30T04:52:56.661Z,12.43
2023-04-30T04:55:25.414Z,12.35
2023-04-30T04:57:53.586Z,12.54
2023-04-30T05:00:23.085Z,12.21
2023-04-30T05:02:51.476Z,12.11
2023-04-30T05:05:19.596Z,12.03
2023-04-30T05:07:47.486Z,12.24
2023-04-30T05:10:16.938Z,12.37
2023-04-30T05:12:44.832Z,12.37
2023-04-30T05:15:12.894Z,12.45
2023-04-30T05:17:40.880Z,12.13
2023-04-30T05:20:10.325Z,12.17
2023-04-30T05:22:38.414Z,12.20
2023-04-30T05:25:07.362Z,12.43
2023-04-30T05:27:37.172Z,12.30
2023-04-30T05:30:09.464Z,12.15
2023-04-30T05:32:37.562Z,12.38
2023-04-30T05:35:05.891Z,12.52
2023-04-30T05:37:33.774Z,12.27
2023-04-30T05:40:01.741Z,12.30
2023-04-30T05:42:29.663Z,12.36
2023-04-30T05:44:58.923Z,12.53
2023-04-30T05:47:26.989Z,12.21
2023-04-30T05:49:55.427Z,12.29
2023-04-30T05:52:23.499Z,12.12
2023-04-30T05:54:51.595Z,12.50
2023-04-30T05:57:20.021Z,12.60
2023-04-30T05:59:48.150Z,12.61
2023-04-30T06:02:18.143Z,12.78
2023-04-30T06:04:46.390Z,12.85
2023-04-30T06:07:14.549Z,13.23
2023-04-30T06:09:42.515Z,13.47
2023-04-30T06:12:11.337Z,13.45
2023-04-30T06:14:39.702Z,13.39
2023-04-30T06:17:08.997Z,13.86
2023-04-30T06:19:40.699Z,14.00
2023-04-30T06:22:08.744Z,14.03
2023-04-30T06:24:36.723Z,13.28
2023-04-30T06:27:04.959Z,13.16
2023-04-30T06:29:34.522Z,13.28
2023-04-30T06:32:11.823Z,13.96
2023-04-30T06:35:08.944Z,14.39
2023-04-30T06:38:07.228Z,13.87
2023-04-30T06:40:57.262Z,14.12
2023-04-30T06:43:27.058Z,14.06
2023-04-30T06:45:56.532Z,14.15
2023-04-30T06:48:25.981Z,13.84
2023-04-30T06:50:55.630Z,13.97
2023-04-30T06:53:24.542Z,14.10
2023-04-30T06:55:56.649Z,14.72
2023-04-30T06:58:24.794Z,14.35
2023-04-30T07:00:54.153Z,15.10
2023-04-30T07:03:23.268Z,15.81
2023-04-30T07:06:27.721Z,14.59
2023-04-30T07:09:16.668Z,15.48
2023-04-30T07:11:45.459Z,15.05
2023-04-30T07:14:14.421Z,14.41
2023-04-30T07:16:42.843Z,14.64
2023-04-30T07:19:11.258Z,16.04
2023-04-30T07:21:41.637Z,16.79
2023-04-30T07:24:11.873Z,16.63
2023-04-30T07:26:44.224Z,15.21
2023-04-30T07:29:12.715Z,15.55
2023-04-30T07:31:40.725Z,15.60
2023-04-30T07:34:09.183Z,16.08
2023-04-30T07:36:40.137Z,16.20
2023-04-30T07:39:08.077Z,16.59
2023-04-30T07:41:38.433Z,16.43
2023-04-30T07:44:07.935Z,16.56
2023-04-30T07:46:36.511Z,17.31
2023-04-30T07:49:07.547Z,17.75
2023-04-30T07:51:35.958Z,17.13
2023-04-30T07:54:07.491Z,16.90
2023-04-30T07:56:36.994Z,16.94
2023-04-30T07:59:05.013Z,17.83
2023-04-30T08:01:33.201Z,17.99
2023-04-30T08:04:01.545Z,18.15
2023-04-30T08:06:29.809Z,18.75
2023-04-30T08:08:58.061Z,18.07
2023-04-30T08:11:30.700Z,18.05
2023-04-30T08:13:58.886Z,19.19
2023-04-30T08:16:26.884Z,19.82
2023-04-30T08:18:55.806Z,19.62
2023-04-30T08:21:23.735Z,17.58
2023-04-30T08:23:51.859Z,17.47
2023-04-30T08:26:19.807Z,17.30
2023-04-30T08:28:49.135Z,17.95
2023-04-30T08:31:18.433Z,16.84
2023-04-30T08:33:46.675Z,16.72
2023-04-30T08:36:14.656Z,17.00
2023-04-30T08:38:42.694Z,17.44
2023-04-30T08:41:13.382Z,17.74
2023-04-30T08:43:42.091Z,16.76
2023-04-30T08:46:13.835Z,15.90
2023-04-30T08:48:45.247Z,17.21
2023-04-30T08:51:13.295Z,17.10
2023-04-30T08:53:43.205Z,17.74
2023-04-30T08:56:12.202Z,17.38
2023-04-30T08:58:41.668Z,17.13
2023-04-30T09:01:11.588Z,17.14
2023-04-30T09:03:39.663Z,16.75
2023-04-30T09:06:07.847Z,17.24
2023-04-30T09:08:43.144Z,16.12
2023-04-30T09:11:27.453Z,16.39
2023-04-30T09:13:57.375Z,17.00
2023-04-30T09:16:31.433Z,16.40
2023-04-30T09:18:59.905Z,16.81
2023-04-30T09:21:34.799Z,17.35
2023-04-30T09:24:04.161Z,16.65
2023-04-30T09:26:35.841Z,17.18
2023-04-30T09:29:08.127Z,16.78
2023-04-30T09:31:38.675Z,17.08
2023-04-30T09:34:07.168Z,17.51
2023-04-30T09:36:40.548Z,17.45
2023-04-30T09:39:14.232Z,17.27
2023-04-30T09:41:43.487Z,16.93
2023-04-30T09:44:32.211Z,17.24
2023-04-30T09:47:07.755Z,17.19
2023-04-30T09:50:01.802Z,17.58
2023-04-30T09:52:34.182Z,16.58
2023-04-30T09:55:06.025Z,16.77
2023-04-30T09:57:38.032Z,17.66
2023-04-30T10:00:11.682Z,17.66
2023-04-30T10:03:52.501Z,17.59
2023-04-30T10:06:47.724Z,16.46
2023-04-30T10:09:37.730Z,17.21
2023-04-30T10:12:39.405Z,16.56
2023-04-30T10:15:32.732Z,17.17
2023-04-30T10:18:10.994Z,17.09
2023-04-30T10:20:55.010Z,17.26
2023-04-30T10:23:35.429Z,17.16
2023-04-30T10:26:17.779Z,16.68
2023-04-30T10:28:52.847Z,16.78
2023-04-30T10:31:27.464Z,16.91
2023-04-30T10:34:25.040Z,16.81
2023-04-30T10:37:23.227Z,17.30
2023-04-30T10:39:53.312Z,18.47
2023-04-30T10:42:22.275Z,17.86
2023-04-30T10:44:58.438Z,17.94
2023-04-30T10:47:53.889Z,18.32
2023-04-30T10:50:31.537Z,17.79
2023-04-30T10:53:07.761Z,18.10
2023-04-30T10:55:49.022Z,17.71
2023-04-30T10:58:30.665Z,17.92
2023-04-30T11:01:05.321Z,17.32
2023-04-30T11:03:35.846Z,17.63
2023-04-30T11:06:10.502Z,17.21
2023-04-30T11:08:42.610Z,17.91
2023-04-30T11:11:14.599Z,18.02
2023-04-30T11:13:46.290Z,18.16
2023-04-30T11:16:14.965Z,18.36
2023-04-30T11:18:45.465Z,17.65
2023-04-30T11:21:15.943Z,18.13
2023-04-30T11:23:50.278Z,18.25
2023-04-30T11:26:18.495Z,16.78
2023-04-30T11:28:53.330Z,18.04
2023-04-30T11:31:23.789Z,17.72
2023-04-30T11:33:59.824Z,18.36
2023-04-30T11:36:34.558Z,17.94
2023-04-30T11:39:06.358Z,17.69
2023-04-30T11:41:43.142Z,17.53
2023-04-30T11:44:24.784Z,17.51
2023-04-30T11:46:53.020Z,17.78
2023-04-30T11:49:22.126Z,17.79
2023-04-30T11:51:50.855Z,18.72
2023-04-30T11:54:20.501Z,18.72
2023-04-30T11:56:50.188Z,19.77
2023-04-30T11:59:21.377Z,20.14
2023-04-30T12:01:49.411Z,19.64
2023-04-30T12:04:19.259Z,19.43
2023-04-30T12:06:47.416Z,18.12
2023-04-30T12:09:15.602Z,18.07
2023-04-30T12:11:44.926Z,18.41
2023-04-30T12:14:14.603Z,18.38
2023-04-30T12:16:45.639Z,17.69
2023-04-30T12:19:14.366Z,18.17
2023-04-30T12:21:44.709Z,18.75
2023-04-30T12:24:12.787Z,18.51
2023-04-30T12:26:43.383Z,18.28
2023-04-30T12:29:16.857Z,17.90
2023-04-30T12:31:46.513Z,17.83
2023-04-30T12:34:16.001Z,17.98
2023-04-30T12:36:44.108Z,17.70
2023-04-30T12:39:14.073Z,18.11
2023-04-30T12:41:43.247Z,18.65
2023-04-30T12:44:24.659Z,18.04
2023-04-30T12:46:56.368Z,18.31
2023-04-30T12:49:29.221Z,18.18
2023-04-30T12:52:02.179Z,18.14
2023-04-30T12:54:31.451Z,18.75
2023-04-30T12:57:01.257Z,19.03
2023-04-30T12:59:31.380Z,18.89
2023-04-30T13:02:08.324Z,18.47
2023-04-30T13:04:37.195Z,19.28
2023-04-30T13:07:06.373Z,18.87
2023-04-30T13:09:35.760Z,18.36
2023-04-30T13:12:06.266Z,17.96
2023-04-30T13:14:38.858Z,18.08
2023-04-30T13:17:07.585Z,18.74
2023-04-30T13:19:44.457Z,18.04
2023-04-30T13:22:12.696Z,18.53
2023-04-30T13:24:41.256Z,18.05
2023-04-30T13:27:09.866Z,18.45
2023-04-30T13:29:39.431Z,17.95
2023-04-30T13:32:08.527Z,18.29
2023-04-30T13:34:36.706Z,18.46
2023-04-30T13:37:04.845Z,18.08
2023-04-30T13:39:36.819Z,18.01
2023-04-30T13:42:05.435Z,18.44
2023-04-30T13:44:33.880Z,18.25
2023-04-30T13:47:04.436Z,18.28
2023-04-30T13:49:32.515Z,19.05
2023-04-30T13:52:00.859Z,18.94
2023-04-30T13:54:29.151Z,18.84
2023-04-30T13:56:57.164Z,19.02
2023-04-30T13:59:25.123Z,19.61
2023-04-30T14:01:53.433Z,20.13
2023-04-30T14:04:23.762Z,19.40
2023-04-30T14:06:56.509Z,19.68
2023-04-30T14:09:24.934Z,19.42
2023-04-30T14:11:52.965Z,19.55
2023-04-30T14:14:21.054Z,19.78
2023-04-30T14:16:49.188Z,19.40
2023-04-30T14:19:17.285Z,19.31
2023-04-30T14:21:46.779Z,19.10
2023-04-30T14:24:15.865Z,19.43
2023-04-30T14:26:45.592Z,19.33
2023-04-30T14:29:14.724Z,19.25
2023-04-30T14:31:42.804Z,18.12
2023-04-30T14:34:10.867Z,17.78
2023-04-30T14:36:39.416Z,17.73
2023-04-30T14:39:09.788Z,18.52
2023-04-30T14:41:38.171Z,18.70
2023-04-30T14:44:06.916Z,18.60
2023-04-30T14:46:37.924Z,18.70
2023-04-30T14:49:14.297Z,18.71
2023-04-30T14:51:44.617Z,18.46
2023-04-30T14:54:16.442Z,18.32
2023-04-30T14:56:47.722Z,18.29
2023-04-30T14:59:16.010Z,18.71
2023-04-30T15:01:43.940Z,18.85
2023-04-30T15:04:12.021Z,18.87
2023-04-30T15:06:40.943Z,18.50
2023-04-30T15:09:09.662Z,18.40
2023-04-30T15:11:39.167Z,18.59
2023-04-30T15:14:07.320Z,19.15
2023-04-30T15:16:35.721Z,18.48
2023-04-30T15:19:04.069Z,18.64
2023-04-30T15:21:34.390Z,18.44
2023-04-30T15:24:05.488Z,18.47
2023-04-30T15:26:33.792Z,18.37
2023-04-30T15:29:03.573Z,18.15
2023-04-30T15:31:32.968Z,18.34
2023-04-30T15:34:03.675Z,18.89
2023-04-30T15:36:31.997Z,19.07
2023-04-30T15:39:02.300Z,18.32
2023-04-30T15:41:30.365Z,18.78
2023-04-30T15:43:58.716Z,18.47
2023-04-30T15:46:29.092Z,18.43
2023-04-30T15:49:01.420Z,18.83
2023-04-30T15:51:31.003Z,18.54
2023-04-30T15:53:58.927Z,18.42
2023-04-30T15:56:39.461Z,18.37
2023-04-30T15:59:29.639Z,18.17
2023-04-30T16:02:03.749Z,18.12
2023-04-30T16:04:32.161Z,18.36
2023-04-30T16:07:01.301Z,18.29
2023-04-30T16:09:32.329Z,18.63
2023-04-30T16:12:03.434Z,18.58
2023-04-30T16:14:35.588Z,18.76
2023-04-30T16:17:06.261Z,18.41
2023-04-30T16:19:34.439Z,18.73
2023-04-30T16:22:02.885Z,19.00
2023-04-30T16:24:31.675Z,18.59
2023-04-30T16:26:59.614Z,18.77
2023-04-30T16:29:29.321Z,18.42
2023-04-30T16:31:58.415Z,18.45
2023-04-30T16:34:28.733Z,18.09
2023-04-30T16:36:58.140Z,18.19
2023-04-30T16:39:29.289Z,18.17
2023-04-30T16:42:19.480Z,17.89
2023-04-30T16:45:14.194Z,18.31
2023-04-30T16:48:05.116Z,18.30
2023-04-30T16:50:38.999Z,17.64
2023-04-30T16:53:14.329Z,17.44
2023-04-30T16:55:53.182Z,17.24
2023-04-30T16:58:21.456Z,17.46
2023-04-30T17:00:57.525Z,17.79
2023-04-30T17:03:37.778Z,17.53
2023-04-30T17:06:17.586Z,17.99
2023-04-30T17:08:52.001Z,18.06
2023-04-30T17:11:24.922Z,17.83
2023-04-30T17:14:05.637Z,17.95
2023-04-30T17:17:03.731Z,17.60
2023-04-30T17:19:40.446Z,17.91
2023-04-30T17:22:22.948Z,17.54
2023-04-30T17:25:44.377Z,17.67
2023-04-30T17:28:54.208Z,17.68
2023-04-30T17:31:22.443Z,17.73
2023-04-30T17:34:00.329Z,17.60
2023-04-30T17:36:51.572Z,17.19
2023-04-30T17:39:31.418Z,17.28
2023-04-30T17:42:18.263Z,17.28
2023-04-30T17:45:22.225Z,17.04
2023-04-30T17:52:15.617Z,16.64
2023-04-30T17:55:04.132Z,16.92
2023-04-30T17:58:03.740Z,16.98
2023-04-30T18:01:01.002Z,17.08
2023-04-30T18:03:29.407Z,16.93
2023-04-30T18:05:57.686Z,16.62
2023-04-30T18:08:26.790Z,16.48
2023-04-30T18:11:04.068Z,16.67
2023-04-30T18:13:33.161Z,16.62
2023-04-30T18:16:02.030Z,16.76
2023-04-30T18:18:31.902Z,16.61
2023-04-30T18:21:01.804Z,16.23
2023-04-30T18:23:32.814Z,16.34
2023-04-30T18:26:04.193Z,16.28
2023-04-30T18:28:48.516Z,16.21
2023-04-30T18:31:37.449Z,15.95
2023-04-30T18:34:14.831Z,15.96
2023-04-30T18:37:24.610Z,15.89
2023-04-30T18:40:02.372Z,15.75
2023-04-30T18:42:54.792Z,15.55
2023-04-30T18:45:23.586Z,15.61
2023-04-30T18:47:58.701Z,15.55
2023-04-30T18:50:27.646Z,15.50
2023-04-30T18:52:57.732Z,15.43
2023-04-30T18:55:27.068Z,15.31
2023-04-30T18:57:58.002Z,15.17
2023-04-30T19:00:26.833Z,15.10
2023-04-30T19:02:55.854Z,14.99
2023-04-30T19:05:30.261Z,14.83
2023-04-30T19:08:01.479Z,15.07
2023-04-30T19:10:31.167Z,15.13
2023-04-30T19:13:01.741Z,15.11
2023-04-30T19:15:36.698Z,14.93
2023-04-30T19:18:07.066Z,14.62
2023-04-30T19:20:36.097Z,14.24
2023-04-30T19:23:04.839Z,14.52
2023-04-30T19:25:34.205Z,14.57
2023-04-30T19:28:05.433Z,14.42
2023-04-30T19:30:35.172Z,14.48
2023-04-30T19:33:06.011Z,14.57
2023-04-30T19:35:38.608Z,14.43
2023-04-30T19:38:09.595Z,14.46
2023-04-30T19:40:37.980Z,14.27
2023-04-30T19:43:07.352Z,14.22
2023-04-30T19:45:38.097Z,14.22
2023-04-30T19:48:07.018Z,14.19
2023-04-30T19:50:35.196Z,13.90
2023-04-30T19:53:03.291Z,14.01
2023-04-30T19:55:32.752Z,13.94
2023-04-30T19:58:00.974Z,13.97
2023-04-30T20:00:30.369Z,13.90
2023-04-30T20:03:01.260Z,13.87
2023-04-30T20:05:29.660Z,13.92
2023-04-30T20:07:57.928Z,13.94
2023-04-30T20:10:26.004Z,13.87
2023-04-30T20:12:54.512Z,13.87
2023-04-30T20:15:22.738Z,13.74
2023-04-30T20:17:52.939Z,13.76
2023-04-30T20:20:23.778Z,13.54
2023-04-30T20:22:54.226Z,13.60
2023-04-30T20:25:25.868Z,13.23
2023-04-30T20:27:53.985Z,12.89
2023-04-30T20:30:22.281Z,12.70
2023-04-30T20:32:53.763Z,12.74
2023-04-30T20:35:24.424Z,12.92
2023-04-30T20:38:00.672Z,12.96
2023-04-30T20:40:29.710Z,12.94
2023-04-30T20:42:57.774Z,12.99
2023-04-30T20:45:25.725Z,13.05
2023-04-30T20:47:55.098Z,12.98
2023-04-30T20:50:23.365Z,12.93
2023-04-30T20:52:51.552Z,12.93
2023-04-30T20:55:20.203Z,12.99
2023-04-30T20:57:48.294Z,12.99
2023-04-30T21:00:16.849Z,13.00
2023-04-30T21:02:46.976Z,13.06
2023-04-30T21:05:16.701Z,12.78
2023-04-30T21:07:44.964Z,12.73
2023-04-30T21:10:13.274Z,12.72
2023-04-30T21:12:41.173Z,12.53
2023-04-30T21:15:10.507Z,12.54
2023-04-30T21:17:38.600Z,12.52
2023-04-30T21:20:07.954Z,12.04
2023-04-30T21:22:37.363Z,12.15
2023-04-30T21:25:06.562Z,12.13
2023-04-30T21:27:35.537Z,12.32
2023-04-30T21:30:03.718Z,12.46
2023-04-30T21:32:32.297Z,12.58
2023-04-30T21:35:01.793Z,12.60
2023-04-30T21:37:30.029Z,12.68
2023-04-30T21:40:11.947Z,12.61
2023-04-30T21:42:40.090Z,12.39
2023-04-30T21:45:09.967Z,12.49
2023-04-30T21:47:38.035Z,12.59
2023-04-30T21:50:09.246Z,12.55
2023-04-30T21:52:37.705Z,12.06
2023-04-30T21:55:06.639Z,12.02
2023-04-30T21:57:36.456Z,11.97
2023-04-30T22:00:06.521Z,12.02
2023-04-30T22:02:36.294Z,12.03
2023-04-30T22:05:04.611Z,12.11
2023-04-30T22:07:33.079Z,11.85
2023-04-30T22:10:02.817Z,11.99
2023-04-30T22:12:30.969Z,11.79
2023-04-30T22:15:00.956Z,11.57
2023-04-30T22:17:29.663Z,11.72
2023-04-30T22:19:58.081Z,11.89
2023-04-30T22:22:26.871Z,12.04
2023-04-30T22:24:56.129Z,12.12
2023-04-30T22:27:24.188Z,12.14
2023-04-30T22:29:52.307Z,12.14
2023-04-30T22:32:21.659Z,12.14
2023-04-30T22:34:50.985Z,12.06
2023-04-30T22:37:19.090Z,12.08
2023-04-30T22:39:48.407Z,12.06
2023-04-30T22:42:16.892Z,11.69
2023-04-30T22:44:45.916Z,11.64
2023-04-30T22:47:14.277Z,10.96
2023-04-30T22:49:44.025Z,11.25
2023-04-30T22:52:12.521Z,11.40
2023-04-30T22:54:41.242Z,11.61
2023-04-30T22:57:09.386Z,11.66
2023-04-30T22:59:37.506Z,11.65
2023-04-30T23:02:07.392Z,11.36
2023-04-30T23:04:36.991Z,11.34
2023-04-30T23:07:09.027Z,10.90
2023-04-30T23:09:37.076Z,10.69
2023-04-30T23:12:05.794Z,10.97
2023-04-30T23:14:33.895Z,11.23
2023-04-30T23:17:04.915Z,11.47
2023-04-30T23:19:33.046Z,11.48
2023-04-30T23:22:00.982Z,11.44
2023-04-30T23:24:35.092Z,11.48
2023-04-30T23:27:03.136Z,11.38
2023-04-30T23:29:31.223Z,11.38
2023-04-30T23:31:59.510Z,11.38
2023-04-30T23:34:27.504Z,10.95
2023-04-30T23:36:56.249Z,10.88
2023-04-30T23:39:25.462Z,10.84
2023-04-30T23:41:54.859Z,11.22
2023-04-30T23:44:22.889Z,11.39
2023-04-30T23:46:51.536Z,11.34
2023-04-30T23:49:20.575Z,11.37
2023-04-30T23:51:48.860Z,11.19
2023-04-30T23:54:17.220Z,11.16
2023-04-30T23:56:46.276Z,10.97
2023-04-30T23:59:16.226Z,11.09
